sensor_id;sensor_type;location;lat;lon;timestamp;P1;durP1;ratioP1;P2;durP2;ratioP2
84054;SDS011;74141;51.504;7.122;2023-12-04T00:01:45;16.75;;;9.75;;
84054;SDS011;74141;51.504;7.122;2023-12-04T00:04:11;15.77;;;9.52;;
84054;SDS011;74141;51.504;7.122;2023-12-04T00:06:37;19.55;;;10.35;;
84054;SDS011;74141;51.504;7.122;2023-12-04T00:09:02;16.80;;;9.15;;
84054;SDS011;74141;51.504;7.122;2023-12-04T00:11:27;19.17;;;10.88;;
84054;SDS011;74141;51.504;7.122;2023-12-04T00:13:53;18.70;;;9.73;;
84054;SDS011;74141;51.504;7.122;2023-12-04T00:16:18;21.73;;;11.00;;
84054;SDS011;74141;51.504;7.122;2023-12-04T00:18:43;17.00;;;9.20;;
84054;SDS011;74141;51.504;7.122;2023-12-04T00:21:09;17.23;;;10.17;;
84054;SDS011;74141;51.504;7.122;2023-12-04T00:23:34;17.60;;;9.17;;
84054;SDS011;74141;51.504;7.122;2023-12-04T00:25:59;16.40;;;8.80;;
84054;SDS011;74141;51.504;7.122;2023-12-04T00:28:25;20.98;;;11.77;;
84054;SDS011;74141;51.504;7.122;2023-12-04T00:30:50;16.30;;;9.65;;
84054;SDS011;74141;51.504;7.122;2023-12-04T00:33:15;17.10;;;10.05;;
84054;SDS011;74141;51.504;7.122;2023-12-04T00:35:41;14.90;;;8.93;;
84054;SDS011;74141;51.504;7.122;2023-12-04T00:38:06;15.38;;;9.07;;
84054;SDS011;74141;51.504;7.122;2023-12-04T00:40:31;16.10;;;9.48;;
84054;SDS011;74141;51.504;7.122;2023-12-04T00:42:58;15.55;;;8.90;;
84054;SDS011;74141;51.504;7.122;2023-12-04T00:45:23;16.50;;;9.77;;
84054;SDS011;74141;51.504;7.122;2023-12-04T00:47:49;13.30;;;8.23;;
84054;SDS011;74141;51.504;7.122;2023-12-04T00:50:14;14.53;;;8.63;;
84054;SDS011;74141;51.504;7.122;2023-12-04T00:52:39;18.33;;;10.63;;
84054;SDS011;74141;51.504;7.122;2023-12-04T00:55:05;13.10;;;8.00;;
84054;SDS011;74141;51.504;7.122;2023-12-04T00:57:30;16.35;;;9.02;;
84054;SDS011;74141;51.504;7.122;2023-12-04T00:59:56;15.25;;;8.50;;
84054;SDS011;74141;51.504;7.122;2023-12-04T01:02:21;14.23;;;8.03;;
84054;SDS011;74141;51.504;7.122;2023-12-04T01:04:46;16.47;;;9.30;;
84054;SDS011;74141;51.504;7.122;2023-12-04T01:07:11;18.70;;;9.30;;
84054;SDS011;74141;51.504;7.122;2023-12-04T01:09:37;15.80;;;8.55;;
84054;SDS011;74141;51.504;7.122;2023-12-04T01:12:02;14.13;;;7.93;;
84054;SDS011;74141;51.504;7.122;2023-12-04T01:14:28;14.57;;;8.13;;
84054;SDS011;74141;51.504;7.122;2023-12-04T01:16:54;13.68;;;8.88;;
84054;SDS011;74141;51.504;7.122;2023-12-04T01:19:19;16.20;;;9.05;;
84054;SDS011;74141;51.504;7.122;2023-12-04T01:21:44;13.00;;;7.67;;
84054;SDS011;74141;51.504;7.122;2023-12-04T01:24:10;13.43;;;8.23;;
84054;SDS011;74141;51.504;7.122;2023-12-04T01:26:36;15.77;;;7.22;;
84054;SDS011;74141;51.504;7.122;2023-12-04T01:29:01;15.55;;;7.65;;
84054;SDS011;74141;51.504;7.122;2023-12-04T01:31:26;14.20;;;8.13;;
84054;SDS011;74141;51.504;7.122;2023-12-04T01:33:52;13.90;;;7.83;;
84054;SDS011;74141;51.504;7.122;2023-12-04T01:36:17;14.77;;;7.73;;
84054;SDS011;74141;51.504;7.122;2023-12-04T01:38:42;13.83;;;8.00;;
84054;SDS011;74141;51.504;7.122;2023-12-04T01:41:07;13.70;;;7.90;;
84054;SDS011;74141;51.504;7.122;2023-12-04T01:43:33;13.15;;;7.22;;
84054;SDS011;74141;51.504;7.122;2023-12-04T01:45:59;13.02;;;7.53;;
84054;SDS011;74141;51.504;7.122;2023-12-04T01:48:26;14.73;;;8.48;;
84054;SDS011;74141;51.504;7.122;2023-12-04T01:50:52;12.30;;;7.75;;
84054;SDS011;74141;51.504;7.122;2023-12-04T01:53:18;13.90;;;8.23;;
84054;SDS011;74141;51.504;7.122;2023-12-04T01:55:44;13.25;;;8.57;;
84054;SDS011;74141;51.504;7.122;2023-12-04T01:58:10;11.55;;;7.93;;
84054;SDS011;74141;51.504;7.122;2023-12-04T02:00:36;11.82;;;7.60;;
84054;SDS011;74141;51.504;7.122;2023-12-04T02:03:11;13.05;;;7.18;;
84054;SDS011;74141;51.504;7.122;2023-12-04T02:05:36;13.10;;;8.23;;
84054;SDS011;74141;51.504;7.122;2023-12-04T02:08:11;11.52;;;7.10;;
84054;SDS011;74141;51.504;7.122;2023-12-04T02:10:36;13.55;;;7.43;;
84054;SDS011;74141;51.504;7.122;2023-12-04T02:13:11;13.32;;;7.50;;
84054;SDS011;74141;51.504;7.122;2023-12-04T02:15:36;13.70;;;7.75;;
84054;SDS011;74141;51.504;7.122;2023-12-04T02:18:11;14.65;;;8.43;;
84054;SDS011;74141;51.504;7.122;2023-12-04T02:20:36;10.10;;;5.57;;
84054;SDS011;74141;51.504;7.122;2023-12-04T02:23:11;12.45;;;7.78;;
84054;SDS011;74141;51.504;7.122;2023-12-04T02:25:36;10.20;;;6.13;;
84054;SDS011;74141;51.504;7.122;2023-12-04T02:28:11;13.30;;;8.23;;
84054;SDS011;74141;51.504;7.122;2023-12-04T02:30:40;9.25;;;5.93;;
84054;SDS011;74141;51.504;7.122;2023-12-04T02:33:11;11.52;;;6.60;;
84054;SDS011;74141;51.504;7.122;2023-12-04T02:35:38;9.98;;;6.03;;
84054;SDS011;74141;51.504;7.122;2023-12-04T02:38:11;11.10;;;6.82;;
84054;SDS011;74141;51.504;7.122;2023-12-04T02:40:37;12.82;;;7.15;;
84054;SDS011;74141;51.504;7.122;2023-12-04T02:43:11;11.73;;;7.25;;
84054;SDS011;74141;51.504;7.122;2023-12-04T02:45:37;13.35;;;7.25;;
84054;SDS011;74141;51.504;7.122;2023-12-04T02:48:11;10.17;;;6.80;;
84054;SDS011;74141;51.504;7.122;2023-12-04T02:50:36;11.30;;;6.95;;
84054;SDS011;74141;51.504;7.122;2023-12-04T02:53:14;12.85;;;6.88;;
84054;SDS011;74141;51.504;7.122;2023-12-04T02:55:39;12.07;;;6.63;;
84054;SDS011;74141;51.504;7.122;2023-12-04T02:58:13;11.23;;;6.70;;
84054;SDS011;74141;51.504;7.122;2023-12-04T03:00:38;11.20;;;6.32;;
84054;SDS011;74141;51.504;7.122;2023-12-04T03:03:04;9.23;;;5.65;;
84054;SDS011;74141;51.504;7.122;2023-12-04T03:05:29;12.40;;;6.67;;
84054;SDS011;74141;51.504;7.122;2023-12-04T03:07:54;11.33;;;6.37;;
84054;SDS011;74141;51.504;7.122;2023-12-04T03:10:20;10.87;;;6.27;;
84054;SDS011;74141;51.504;7.122;2023-12-04T03:12:45;11.00;;;6.38;;
84054;SDS011;74141;51.504;7.122;2023-12-04T03:15:10;10.23;;;6.20;;
84054;SDS011;74141;51.504;7.122;2023-12-04T03:17:37;9.40;;;6.15;;
84054;SDS011;74141;51.504;7.122;2023-12-04T03:20:02;12.75;;;6.50;;
84054;SDS011;74141;51.504;7.122;2023-12-04T03:22:28;9.57;;;6.60;;
84054;SDS011;74141;51.504;7.122;2023-12-04T03:24:53;13.43;;;6.55;;
84054;SDS011;74141;51.504;7.122;2023-12-04T03:27:19;10.15;;;5.85;;
84054;SDS011;74141;51.504;7.122;2023-12-04T03:29:44;8.90;;;6.30;;
84054;SDS011;74141;51.504;7.122;2023-12-04T03:32:09;10.53;;;6.23;;
84054;SDS011;74141;51.504;7.122;2023-12-04T03:34:34;10.53;;;5.93;;
84054;SDS011;74141;51.504;7.122;2023-12-04T03:37:00;10.60;;;6.27;;
84054;SDS011;74141;51.504;7.122;2023-12-04T03:39:25;8.57;;;5.78;;
84054;SDS011;74141;51.504;7.122;2023-12-04T03:41:50;8.17;;;5.23;;
84054;SDS011;74141;51.504;7.122;2023-12-04T03:44:15;10.23;;;6.60;;
84054;SDS011;74141;51.504;7.122;2023-12-04T03:46:41;8.07;;;5.63;;
84054;SDS011;74141;51.504;7.122;2023-12-04T03:49:06;8.27;;;4.90;;
84054;SDS011;74141;51.504;7.122;2023-12-04T03:51:31;9.48;;;5.35;;
84054;SDS011;74141;51.504;7.122;2023-12-04T03:53:57;9.87;;;5.73;;
84054;SDS011;74141;51.504;7.122;2023-12-04T03:56:22;7.60;;;5.18;;
84054;SDS011;74141;51.504;7.122;2023-12-04T03:58:47;9.63;;;5.80;;
84054;SDS011;74141;51.504;7.122;2023-12-04T04:01:12;9.67;;;5.43;;
84054;SDS011;74141;51.504;7.122;2023-12-04T04:03:38;8.53;;;5.87;;
84054;SDS011;74141;51.504;7.122;2023-12-04T04:06:03;8.00;;;4.80;;
84054;SDS011;74141;51.504;7.122;2023-12-04T04:08:29;8.40;;;5.25;;
84054;SDS011;74141;51.504;7.122;2023-12-04T04:10:54;7.63;;;4.93;;
84054;SDS011;74141;51.504;7.122;2023-12-04T04:13:19;10.35;;;5.35;;
84054;SDS011;74141;51.504;7.122;2023-12-04T04:15:45;10.33;;;4.63;;
84054;SDS011;74141;51.504;7.122;2023-12-04T04:18:11;9.95;;;5.90;;
84054;SDS011;74141;51.504;7.122;2023-12-04T04:20:36;8.63;;;4.82;;
84054;SDS011;74141;51.504;7.122;2023-12-04T04:23:01;7.60;;;4.67;;
84054;SDS011;74141;51.504;7.122;2023-12-04T04:25:26;8.63;;;5.50;;
84054;SDS011;74141;51.504;7.122;2023-12-04T04:27:52;6.73;;;4.07;;
84054;SDS011;74141;51.504;7.122;2023-12-04T04:30:17;7.40;;;4.73;;
84054;SDS011;74141;51.504;7.122;2023-12-04T04:32:42;7.40;;;5.13;;
84054;SDS011;74141;51.504;7.122;2023-12-04T04:35:08;6.18;;;4.05;;
84054;SDS011;74141;51.504;7.122;2023-12-04T04:37:33;9.15;;;4.70;;
84054;SDS011;74141;51.504;7.122;2023-12-04T04:39:59;8.20;;;4.53;;
84054;SDS011;74141;51.504;7.122;2023-12-04T04:42:24;8.97;;;5.60;;
84054;SDS011;74141;51.504;7.122;2023-12-04T04:44:49;8.20;;;5.13;;
84054;SDS011;74141;51.504;7.122;2023-12-04T04:47:15;7.60;;;5.00;;
84054;SDS011;74141;51.504;7.122;2023-12-04T04:49:40;6.90;;;5.07;;
84054;SDS011;74141;51.504;7.122;2023-12-04T04:52:07;6.40;;;3.90;;
84054;SDS011;74141;51.504;7.122;2023-12-04T04:54:32;7.88;;;4.82;;
84054;SDS011;74141;51.504;7.122;2023-12-04T04:56:57;7.30;;;4.50;;
84054;SDS011;74141;51.504;7.122;2023-12-04T04:59:23;8.13;;;4.90;;
84054;SDS011;74141;51.504;7.122;2023-12-04T05:01:48;7.43;;;4.55;;
84054;SDS011;74141;51.504;7.122;2023-12-04T05:04:13;10.13;;;5.03;;
84054;SDS011;74141;51.504;7.122;2023-12-04T05:06:38;8.27;;;5.00;;
84054;SDS011;74141;51.504;7.122;2023-12-04T05:09:04;7.65;;;4.93;;
84054;SDS011;74141;51.504;7.122;2023-12-04T05:11:29;7.35;;;4.45;;
84054;SDS011;74141;51.504;7.122;2023-12-04T05:13:55;8.52;;;5.13;;
84054;SDS011;74141;51.504;7.122;2023-12-04T05:16:20;7.20;;;4.45;;
84054;SDS011;74141;51.504;7.122;2023-12-04T05:18:45;8.40;;;5.30;;
84054;SDS011;74141;51.504;7.122;2023-12-04T05:21:11;7.03;;;4.63;;
84054;SDS011;74141;51.504;7.122;2023-12-04T05:23:37;7.43;;;4.95;;
84054;SDS011;74141;51.504;7.122;2023-12-04T05:26:03;7.18;;;4.80;;
84054;SDS011;74141;51.504;7.122;2023-12-04T05:28:29;9.48;;;4.50;;
84054;SDS011;74141;51.504;7.122;2023-12-04T05:30:54;8.25;;;5.30;;
84054;SDS011;74141;51.504;7.122;2023-12-04T05:33:20;8.70;;;4.57;;
84054;SDS011;74141;51.504;7.122;2023-12-04T05:35:47;10.07;;;5.97;;
84054;SDS011;74141;51.504;7.122;2023-12-04T05:38:12;7.32;;;4.88;;
84054;SDS011;74141;51.504;7.122;2023-12-04T05:40:38;9.73;;;5.75;;
84054;SDS011;74141;51.504;7.122;2023-12-04T05:43:03;11.30;;;5.78;;
84054;SDS011;74141;51.504;7.122;2023-12-04T05:45:29;9.77;;;5.73;;
84054;SDS011;74141;51.504;7.122;2023-12-04T05:47:54;7.53;;;4.90;;
84054;SDS011;74141;51.504;7.122;2023-12-04T05:50:19;9.10;;;5.20;;
84054;SDS011;74141;51.504;7.122;2023-12-04T05:52:44;9.57;;;5.73;;
84054;SDS011;74141;51.504;7.122;2023-12-04T05:55:10;10.50;;;5.60;;
84054;SDS011;74141;51.504;7.122;2023-12-04T05:57:35;7.22;;;4.95;;
84054;SDS011;74141;51.504;7.122;2023-12-04T06:00:03;7.95;;;5.05;;
84054;SDS011;74141;51.504;7.122;2023-12-04T06:02:29;9.93;;;5.75;;
84054;SDS011;74141;51.504;7.122;2023-12-04T06:04:55;8.52;;;5.03;;
84054;SDS011;74141;51.504;7.122;2023-12-04T06:07:20;9.05;;;5.43;;
84054;SDS011;74141;51.504;7.122;2023-12-04T06:09:46;6.97;;;4.53;;
84054;SDS011;74141;51.504;7.122;2023-12-04T06:12:11;11.70;;;6.53;;
84054;SDS011;74141;51.504;7.122;2023-12-04T06:14:36;9.07;;;5.87;;
84054;SDS011;74141;51.504;7.122;2023-12-04T06:17:02;7.60;;;4.90;;
84054;SDS011;74141;51.504;7.122;2023-12-04T06:19:27;8.93;;;6.32;;
84054;SDS011;74141;51.504;7.122;2023-12-04T06:21:53;8.18;;;5.72;;
84054;SDS011;74141;51.504;7.122;2023-12-04T06:24:19;11.75;;;5.90;;
84054;SDS011;74141;51.504;7.122;2023-12-04T06:26:45;8.23;;;5.57;;
84054;SDS011;74141;51.504;7.122;2023-12-04T06:31:40;9.50;;;5.15;;
84054;SDS011;74141;51.504;7.122;2023-12-04T06:34:06;8.40;;;5.20;;
84054;SDS011;74141;51.504;7.122;2023-12-04T06:36:31;9.20;;;6.20;;
84054;SDS011;74141;51.504;7.122;2023-12-04T06:39:02;9.48;;;5.63;;
84054;SDS011;74141;51.504;7.122;2023-12-04T06:41:33;10.30;;;6.03;;
84054;SDS011;74141;51.504;7.122;2023-12-04T06:43:59;8.73;;;6.10;;
84054;SDS011;74141;51.504;7.122;2023-12-04T06:46:24;10.00;;;6.32;;
84054;SDS011;74141;51.504;7.122;2023-12-04T06:48:53;12.27;;;6.80;;
84054;SDS011;74141;51.504;7.122;2023-12-04T06:51:21;8.73;;;5.63;;
84054;SDS011;74141;51.504;7.122;2023-12-04T06:53:47;8.50;;;5.38;;
84054;SDS011;74141;51.504;7.122;2023-12-04T06:56:12;9.00;;;6.50;;
84054;SDS011;74141;51.504;7.122;2023-12-04T06:58:38;9.23;;;6.35;;
84054;SDS011;74141;51.504;7.122;2023-12-04T07:01:03;9.07;;;5.30;;
84054;SDS011;74141;51.504;7.122;2023-12-04T07:03:28;8.35;;;5.57;;
84054;SDS011;74141;51.504;7.122;2023-12-04T07:05:54;11.00;;;7.13;;
84054;SDS011;74141;51.504;7.122;2023-12-04T07:08:19;10.27;;;6.40;;
84054;SDS011;74141;51.504;7.122;2023-12-04T07:10:44;8.93;;;5.50;;
84054;SDS011;74141;51.504;7.122;2023-12-04T07:13:10;4.90;;;3.47;;
84054;SDS011;74141;51.504;7.122;2023-12-04T07:15:37;7.13;;;4.45;;
84054;SDS011;74141;51.504;7.122;2023-12-04T07:18:02;7.50;;;5.00;;
84054;SDS011;74141;51.504;7.122;2023-12-04T07:20:28;8.98;;;5.35;;
84054;SDS011;74141;51.504;7.122;2023-12-04T07:22:54;7.68;;;5.07;;
84054;SDS011;74141;51.504;7.122;2023-12-04T07:25:19;9.97;;;5.77;;
84054;SDS011;74141;51.504;7.122;2023-12-04T07:27:45;9.98;;;5.55;;
84054;SDS011;74141;51.504;7.122;2023-12-04T07:30:11;9.98;;;5.57;;
84054;SDS011;74141;51.504;7.122;2023-12-04T07:32:37;11.07;;;6.57;;
84054;SDS011;74141;51.504;7.122;2023-12-04T07:35:03;11.52;;;6.10;;
84054;SDS011;74141;51.504;7.122;2023-12-04T07:37:29;9.05;;;5.68;;
84054;SDS011;74141;51.504;7.122;2023-12-04T07:39:56;7.85;;;5.63;;
84054;SDS011;74141;51.504;7.122;2023-12-04T07:42:21;7.40;;;4.22;;
84054;SDS011;74141;51.504;7.122;2023-12-04T07:44:47;10.07;;;6.78;;
84054;SDS011;74141;51.504;7.122;2023-12-04T07:47:12;8.55;;;5.13;;
84054;SDS011;74141;51.504;7.122;2023-12-04T07:49:38;9.52;;;5.50;;
84054;SDS011;74141;51.504;7.122;2023-12-04T07:52:03;9.07;;;7.03;;
84054;SDS011;74141;51.504;7.122;2023-12-04T07:54:29;10.05;;;6.38;;
84054;SDS011;74141;51.504;7.122;2023-12-04T07:56:54;8.60;;;5.60;;
84054;SDS011;74141;51.504;7.122;2023-12-04T07:59:19;7.70;;;5.03;;
84054;SDS011;74141;51.504;7.122;2023-12-04T08:01:45;8.13;;;5.20;;
84054;SDS011;74141;51.504;7.122;2023-12-04T08:04:10;7.55;;;4.97;;
84054;SDS011;74141;51.504;7.122;2023-12-04T08:06:36;8.23;;;4.97;;
84054;SDS011;74141;51.504;7.122;2023-12-04T08:09:01;8.15;;;4.97;;
84054;SDS011;74141;51.504;7.122;2023-12-04T08:11:27;7.78;;;5.18;;
84054;SDS011;74141;51.504;7.122;2023-12-04T08:13:52;7.95;;;4.93;;
84054;SDS011;74141;51.504;7.122;2023-12-04T08:16:18;7.07;;;4.33;;
84054;SDS011;74141;51.504;7.122;2023-12-04T08:18:45;7.88;;;5.13;;
84054;SDS011;74141;51.504;7.122;2023-12-04T08:21:10;8.25;;;5.10;;
84054;SDS011;74141;51.504;7.122;2023-12-04T08:23:36;6.93;;;4.22;;
84054;SDS011;74141;51.504;7.122;2023-12-04T08:26:02;10.27;;;5.57;;
84054;SDS011;74141;51.504;7.122;2023-12-04T08:28:27;9.85;;;5.00;;
84054;SDS011;74141;51.504;7.122;2023-12-04T08:30:52;13.63;;;5.20;;
84054;SDS011;74141;51.504;7.122;2023-12-04T08:33:18;10.15;;;5.65;;
84054;SDS011;74141;51.504;7.122;2023-12-04T08:35:45;9.45;;;5.22;;
84054;SDS011;74141;51.504;7.122;2023-12-04T08:38:10;7.95;;;4.82;;
84054;SDS011;74141;51.504;7.122;2023-12-04T08:40:36;6.70;;;4.47;;
84054;SDS011;74141;51.504;7.122;2023-12-04T08:43:01;6.75;;;4.45;;
84054;SDS011;74141;51.504;7.122;2023-12-04T08:45:28;9.35;;;5.05;;
84054;SDS011;74141;51.504;7.122;2023-12-04T08:47:54;8.07;;;5.22;;
84054;SDS011;74141;51.504;7.122;2023-12-04T08:50:19;8.07;;;4.70;;
84054;SDS011;74141;51.504;7.122;2023-12-04T08:52:45;7.73;;;4.87;;
84054;SDS011;74141;51.504;7.122;2023-12-04T08:55:10;13.15;;;4.65;;
84054;SDS011;74141;51.504;7.122;2023-12-04T08:57:35;7.72;;;4.75;;
84054;SDS011;74141;51.504;7.122;2023-12-04T09:00:01;11.40;;;5.37;;
84054;SDS011;74141;51.504;7.122;2023-12-04T09:02:28;9.15;;;5.50;;
84054;SDS011;74141;51.504;7.122;2023-12-04T09:04:53;8.48;;;4.88;;
84054;SDS011;74141;51.504;7.122;2023-12-04T09:07:19;7.20;;;4.40;;
84054;SDS011;74141;51.504;7.122;2023-12-04T09:09:44;7.57;;;4.22;;
84054;SDS011;74141;51.504;7.122;2023-12-04T09:12:11;7.13;;;5.13;;
84054;SDS011;74141;51.504;7.122;2023-12-04T09:14:36;7.18;;;3.80;;
84054;SDS011;74141;51.504;7.122;2023-12-04T09:17:02;5.55;;;3.85;;
84054;SDS011;74141;51.504;7.122;2023-12-04T09:19:28;6.53;;;4.55;;
84054;SDS011;74141;51.504;7.122;2023-12-04T09:21:54;6.90;;;3.92;;
84054;SDS011;74141;51.504;7.122;2023-12-04T09:24:20;6.70;;;4.13;;
84054;SDS011;74141;51.504;7.122;2023-12-04T09:26:45;7.40;;;3.90;;
84054;SDS011;74141;51.504;7.122;2023-12-04T09:29:11;7.60;;;4.68;;
84054;SDS011;74141;51.504;7.122;2023-12-04T09:31:37;5.93;;;4.57;;
84054;SDS011;74141;51.504;7.122;2023-12-04T09:34:02;8.15;;;4.22;;
84054;SDS011;74141;51.504;7.122;2023-12-04T09:36:28;6.68;;;4.18;;
84054;SDS011;74141;51.504;7.122;2023-12-04T09:38:54;6.47;;;4.13;;
84054;SDS011;74141;51.504;7.122;2023-12-04T09:41:19;6.55;;;4.25;;
84054;SDS011;74141;51.504;7.122;2023-12-04T09:43:46;7.13;;;3.90;;
84054;SDS011;74141;51.504;7.122;2023-12-04T09:46:12;7.85;;;4.28;;
84054;SDS011;74141;51.504;7.122;2023-12-04T09:48:38;6.93;;;4.30;;
84054;SDS011;74141;51.504;7.122;2023-12-04T09:51:06;5.75;;;3.85;;
84054;SDS011;74141;51.504;7.122;2023-12-04T09:53:32;12.30;;;4.88;;
84054;SDS011;74141;51.504;7.122;2023-12-04T09:55:59;5.35;;;3.50;;
84054;SDS011;74141;51.504;7.122;2023-12-04T09:58:26;7.00;;;4.32;;
84054;SDS011;74141;51.504;7.122;2023-12-04T10:00:57;6.13;;;3.92;;
84054;SDS011;74141;51.504;7.122;2023-12-04T10:03:25;5.72;;;3.88;;
84054;SDS011;74141;51.504;7.122;2023-12-04T10:05:50;8.95;;;5.50;;
84054;SDS011;74141;51.504;7.122;2023-12-04T10:08:15;5.15;;;3.70;;
84054;SDS011;74141;51.504;7.122;2023-12-04T10:10:42;5.38;;;3.92;;
84054;SDS011;74141;51.504;7.122;2023-12-04T10:13:07;6.07;;;3.78;;
84054;SDS011;74141;51.504;7.122;2023-12-04T10:15:33;7.28;;;4.78;;
84054;SDS011;74141;51.504;7.122;2023-12-04T10:17:59;8.10;;;4.53;;
84054;SDS011;74141;51.504;7.122;2023-12-04T10:20:24;5.83;;;3.53;;
84054;SDS011;74141;51.504;7.122;2023-12-04T10:22:53;7.63;;;4.13;;
84054;SDS011;74141;51.504;7.122;2023-12-04T10:25:28;7.88;;;4.35;;
84054;SDS011;74141;51.504;7.122;2023-12-04T10:27:55;7.55;;;4.78;;
84054;SDS011;74141;51.504;7.122;2023-12-04T10:30:32;6.45;;;4.00;;
84054;SDS011;74141;51.504;7.122;2023-12-04T10:33:00;5.60;;;3.97;;
84054;SDS011;74141;51.504;7.122;2023-12-04T10:35:34;6.53;;;3.85;;
84054;SDS011;74141;51.504;7.122;2023-12-04T10:38:01;9.63;;;4.20;;
84054;SDS011;74141;51.504;7.122;2023-12-04T10:40:30;7.43;;;3.42;;
84054;SDS011;74141;51.504;7.122;2023-12-04T10:43:19;7.82;;;4.40;;
84054;SDS011;74141;51.504;7.122;2023-12-04T10:45:46;7.32;;;4.15;;
84054;SDS011;74141;51.504;7.122;2023-12-04T10:48:13;6.55;;;4.28;;
84054;SDS011;74141;51.504;7.122;2023-12-04T10:50:40;8.02;;;4.70;;
84054;SDS011;74141;51.504;7.122;2023-12-04T10:53:08;6.60;;;4.05;;
84054;SDS011;74141;51.504;7.122;2023-12-04T10:55:36;8.32;;;4.78;;
84054;SDS011;74141;51.504;7.122;2023-12-04T10:58:03;7.95;;;5.03;;
84054;SDS011;74141;51.504;7.122;2023-12-04T11:00:32;8.18;;;4.28;;
84054;SDS011;74141;51.504;7.122;2023-12-04T11:03:01;7.70;;;4.53;;
84054;SDS011;74141;51.504;7.122;2023-12-04T11:05:29;8.25;;;5.07;;
84054;SDS011;74141;51.504;7.122;2023-12-04T11:07:58;7.70;;;5.18;;
84054;SDS011;74141;51.504;7.122;2023-12-04T11:10:26;4.95;;;4.35;;
84054;SDS011;74141;51.504;7.122;2023-12-04T11:13:17;8.70;;;5.45;;
84054;SDS011;74141;51.504;7.122;2023-12-04T11:15:47;8.20;;;4.82;;
84054;SDS011;74141;51.504;7.122;2023-12-04T11:18:15;9.65;;;5.15;;
84054;SDS011;74141;51.504;7.122;2023-12-04T11:20:54;8.30;;;5.35;;
84054;SDS011;74141;51.504;7.122;2023-12-04T11:23:22;11.50;;;5.63;;
84054;SDS011;74141;51.504;7.122;2023-12-04T11:25:48;9.70;;;4.95;;
84054;SDS011;74141;51.504;7.122;2023-12-04T11:28:14;11.50;;;7.07;;
84054;SDS011;74141;51.504;7.122;2023-12-04T11:30:41;9.75;;;5.82;;
84054;SDS011;74141;51.504;7.122;2023-12-04T11:33:06;8.75;;;5.18;;
84054;SDS011;74141;51.504;7.122;2023-12-04T11:35:33;10.77;;;6.73;;
84054;SDS011;74141;51.504;7.122;2023-12-04T11:37:59;8.70;;;5.20;;
84054;SDS011;74141;51.504;7.122;2023-12-04T11:40:24;9.02;;;5.60;;
84054;SDS011;74141;51.504;7.122;2023-12-04T11:42:50;9.30;;;5.82;;
84054;SDS011;74141;51.504;7.122;2023-12-04T11:45:20;8.63;;;5.30;;
84054;SDS011;74141;51.504;7.122;2023-12-04T11:47:55;9.45;;;6.53;;
84054;SDS011;74141;51.504;7.122;2023-12-04T11:50:21;11.55;;;6.35;;
84054;SDS011;74141;51.504;7.122;2023-12-04T11:52:49;10.27;;;5.78;;
84054;SDS011;74141;51.504;7.122;2023-12-04T11:55:16;9.48;;;6.25;;
84054;SDS011;74141;51.504;7.122;2023-12-04T11:57:42;10.68;;;6.28;;
84054;SDS011;74141;51.504;7.122;2023-12-04T12:00:08;8.02;;;5.25;;
84054;SDS011;74141;51.504;7.122;2023-12-04T12:05:18;9.00;;;5.45;;
84054;SDS011;74141;51.504;7.122;2023-12-04T12:07:44;10.57;;;5.57;;
84054;SDS011;74141;51.504;7.122;2023-12-04T12:10:10;10.52;;;6.80;;
84054;SDS011;74141;51.504;7.122;2023-12-04T12:12:37;9.20;;;5.57;;
84054;SDS011;74141;51.504;7.122;2023-12-04T12:15:10;8.57;;;5.05;;
84054;SDS011;74141;51.504;7.122;2023-12-04T12:17:40;9.95;;;6.07;;
84054;SDS011;74141;51.504;7.122;2023-12-04T12:20:07;11.10;;;5.70;;
84054;SDS011;74141;51.504;7.122;2023-12-04T12:22:34;12.18;;;7.47;;
84054;SDS011;74141;51.504;7.122;2023-12-04T12:24:59;11.52;;;6.72;;
84054;SDS011;74141;51.504;7.122;2023-12-04T12:27:25;9.82;;;6.28;;
84054;SDS011;74141;51.504;7.122;2023-12-04T12:29:51;9.05;;;5.53;;
84054;SDS011;74141;51.504;7.122;2023-12-04T12:32:16;12.50;;;5.95;;
84054;SDS011;74141;51.504;7.122;2023-12-04T12:34:41;10.27;;;5.67;;
84054;SDS011;74141;51.504;7.122;2023-12-04T12:37:07;7.82;;;5.78;;
84054;SDS011;74141;51.504;7.122;2023-12-04T12:39:33;11.95;;;6.50;;
84054;SDS011;74141;51.504;7.122;2023-12-04T12:42:00;9.80;;;6.85;;
84054;SDS011;74141;51.504;7.122;2023-12-04T12:44:26;8.80;;;5.43;;
84054;SDS011;74141;51.504;7.122;2023-12-04T12:46:52;10.40;;;6.35;;
84054;SDS011;74141;51.504;7.122;2023-12-04T12:49:17;7.45;;;5.15;;
84054;SDS011;74141;51.504;7.122;2023-12-04T12:51:44;11.05;;;6.18;;
84054;SDS011;74141;51.504;7.122;2023-12-04T12:54:10;9.57;;;6.47;;
84054;SDS011;74141;51.504;7.122;2023-12-04T12:56:36;10.40;;;6.38;;
84054;SDS011;74141;51.504;7.122;2023-12-04T12:59:01;9.68;;;6.03;;
84054;SDS011;74141;51.504;7.122;2023-12-04T13:01:30;10.63;;;7.00;;
84054;SDS011;74141;51.504;7.122;2023-12-04T13:03:59;11.00;;;6.50;;
84054;SDS011;74141;51.504;7.122;2023-12-04T13:06:25;11.40;;;6.78;;
84054;SDS011;74141;51.504;7.122;2023-12-04T13:08:50;10.75;;;6.28;;
84054;SDS011;74141;51.504;7.122;2023-12-04T13:11:16;12.40;;;7.95;;
84054;SDS011;74141;51.504;7.122;2023-12-04T13:13:41;10.98;;;5.93;;
84054;SDS011;74141;51.504;7.122;2023-12-04T13:16:06;10.37;;;6.40;;
84054;SDS011;74141;51.504;7.122;2023-12-04T13:18:32;10.23;;;6.53;;
84054;SDS011;74141;51.504;7.122;2023-12-04T13:21:00;8.88;;;5.68;;
84054;SDS011;74141;51.504;7.122;2023-12-04T13:23:26;13.50;;;6.07;;
84054;SDS011;74141;51.504;7.122;2023-12-04T13:25:51;10.45;;;6.70;;
84054;SDS011;74141;51.504;7.122;2023-12-04T13:28:16;13.30;;;6.38;;
84054;SDS011;74141;51.504;7.122;2023-12-04T13:30:41;9.40;;;5.60;;
84054;SDS011;74141;51.504;7.122;2023-12-04T13:33:07;9.32;;;6.00;;
84054;SDS011;74141;51.504;7.122;2023-12-04T13:35:33;10.65;;;4.88;;
84054;SDS011;74141;51.504;7.122;2023-12-04T13:37:58;10.50;;;6.90;;
84054;SDS011;74141;51.504;7.122;2023-12-04T13:40:24;10.75;;;6.70;;
84054;SDS011;74141;51.504;7.122;2023-12-04T13:42:53;8.40;;;6.05;;
84054;SDS011;74141;51.504;7.122;2023-12-04T13:45:37;23.05;;;12.05;;
84054;SDS011;74141;51.504;7.122;2023-12-04T13:48:02;9.50;;;6.07;;
84054;SDS011;74141;51.504;7.122;2023-12-04T13:50:28;10.88;;;7.53;;
84054;SDS011;74141;51.504;7.122;2023-12-04T13:52:53;10.70;;;5.63;;
84054;SDS011;74141;51.504;7.122;2023-12-04T13:55:25;9.13;;;6.25;;
84054;SDS011;74141;51.504;7.122;2023-12-04T13:58:09;9.07;;;5.95;;
84054;SDS011;74141;51.504;7.122;2023-12-04T14:00:40;8.93;;;5.97;;
84054;SDS011;74141;51.504;7.122;2023-12-04T14:03:05;8.75;;;5.68;;
84054;SDS011;74141;51.504;7.122;2023-12-04T14:05:32;8.93;;;6.07;;
84054;SDS011;74141;51.504;7.122;2023-12-04T14:07:58;10.18;;;5.78;;
84054;SDS011;74141;51.504;7.122;2023-12-04T14:10:24;10.13;;;6.25;;
84054;SDS011;74141;51.504;7.122;2023-12-04T14:12:51;8.13;;;5.65;;
84054;SDS011;74141;51.504;7.122;2023-12-04T14:15:16;9.48;;;7.00;;
84054;SDS011;74141;51.504;7.122;2023-12-04T14:17:42;10.23;;;6.60;;
84054;SDS011;74141;51.504;7.122;2023-12-04T14:20:07;8.57;;;5.70;;
84054;SDS011;74141;51.504;7.122;2023-12-04T14:22:41;8.55;;;5.55;;
84054;SDS011;74141;51.504;7.122;2023-12-04T14:25:07;10.88;;;6.40;;
84054;SDS011;74141;51.504;7.122;2023-12-04T14:27:33;7.60;;;5.18;;
84054;SDS011;74141;51.504;7.122;2023-12-04T14:29:58;8.30;;;5.75;;
84054;SDS011;74141;51.504;7.122;2023-12-04T14:32:24;6.57;;;4.67;;
84054;SDS011;74141;51.504;7.122;2023-12-04T14:34:49;9.13;;;6.28;;
84054;SDS011;74141;51.504;7.122;2023-12-04T14:37:14;9.73;;;5.90;;
84054;SDS011;74141;51.504;7.122;2023-12-04T14:39:39;9.65;;;5.93;;
84054;SDS011;74141;51.504;7.122;2023-12-04T14:42:05;9.83;;;6.10;;
84054;SDS011;74141;51.504;7.122;2023-12-04T14:44:30;9.85;;;5.82;;